createdAt,value
2023-04-29T08:02:23.865Z,1.70
2023-04-29T08:04:55.346Z,2.80
2023-04-29T08:07:24.349Z,3.17
2023-04-29T08:09:52.849Z,3.73
2023-04-29T08:12:21.147Z,3.47
2023-04-29T08:17:18.029Z,3.73
2023-04-29T08:19:47.929Z,3.23
2023-04-29T08:22:16.198Z,2.87
2023-04-29T08:24:45.267Z,2.73
2023-04-29T08:27:15.166Z,2.37
2023-04-29T08:29:44.112Z,2.30
2023-04-29T08:32:12.986Z,2.00
2023-04-29T08:34:42.174Z,2.07
2023-04-29T08:37:11.773Z,2.10
2023-04-29T08:39:40.171Z,1.43
2023-04-29T08:42:12.363Z,1.50
2023-04-29T08:44:42.241Z,1.57
2023-04-29T08:47:11.175Z,1.17
2023-04-29T08:49:40.309Z,0.80
2023-04-29T08:52:08.573Z,0.93
2023-04-29T08:54:38.656Z,0.80
2023-04-29T08:57:08.115Z,0.90
2023-04-29T08:59:38.009Z,0.80
2023-04-29T09:02:11.821Z,0.93
2023-04-29T09:04:54.246Z,0.90
2023-04-29T09:07:23.985Z,0.90
2023-04-29T09:09:55.415Z,1.10
2023-04-29T09:12:23.696Z,1.27
2023-04-29T09:14:52.449Z,1.27
2023-04-29T09:17:21.298Z,1.00
2023-04-29T09:19:50.077Z,1.00
2023-04-29T09:22:18.461Z,0.90
2023-04-29T09:24:48.856Z,1.07
2023-04-29T09:27:29.500Z,1.20
2023-04-29T09:30:02.748Z,0.80
2023-04-29T09:32:31.088Z,0.90
2023-04-29T09:34:59.624Z,0.80
2023-04-29T09:37:30.133Z,0.30
2023-04-29T09:39:58.593Z,0.30
2023-04-29T09:42:28.400Z,0.50
2023-04-29T09:44:56.965Z,0.60
2023-04-29T09:47:33.419Z,0.50
2023-04-29T09:50:15.371Z,0.70
2023-04-29T09:52:43.927Z,0.80
2023-04-29T09:55:15.528Z,0.70
2023-04-29T09:57:45.963Z,0.90
2023-04-29T10:00:16.055Z,0.90
2023-04-29T10:02:47.074Z,0.67
2023-04-29T10:05:16.644Z,1.00
2023-04-29T10:07:48.356Z,0.70
2023-04-29T10:10:20.422Z,0.80
2023-04-29T10:12:51.448Z,0.90
2023-04-29T10:15:27.882Z,0.73
2023-04-29T10:18:02.041Z,0.70
2023-04-29T10:20:31.208Z,0.70
2023-04-29T10:23:01.775Z,0.70
2023-04-29T10:25:32.797Z,0.80
2023-04-29T10:28:05.379Z,0.50
2023-04-29T10:30:34.346Z,0.57
2023-04-29T10:33:04.745Z,0.50
2023-04-29T10:35:33.141Z,0.60
2023-04-29T10:38:04.550Z,0.90
2023-04-29T10:40:46.833Z,0.50
2023-04-29T10:43:17.252Z,0.80
2023-04-29T10:45:45.642Z,0.73
2023-04-29T10:48:21.155Z,0.77
2023-04-29T10:51:06.625Z,0.90
2023-04-29T10:53:35.937Z,0.80
2023-04-29T10:56:11.722Z,0.60
2023-04-29T10:58:44.546Z,0.90
2023-04-29T11:01:14.556Z,0.90
2023-04-29T11:03:55.950Z,0.80
2023-04-29T11:06:27.054Z,0.70
2023-04-29T11:09:05.119Z,0.70
2023-04-29T11:12:01.153Z,0.70
2023-04-29T11:14:32.757Z,0.80
2023-04-29T11:17:04.698Z,0.63
2023-04-29T11:19:35.122Z,0.60
2023-04-29T11:22:14.678Z,0.70
2023-04-29T11:24:55.353Z,0.70
2023-04-29T11:27:26.645Z,0.60
2023-04-29T11:29:59.805Z,0.70
2023-04-29T11:32:37.104Z,0.70
2023-04-29T11:35:13.411Z,0.63
2023-04-29T11:37:43.370Z,0.70
2023-04-29T11:40:13.556Z,0.50
2023-04-29T11:42:46.686Z,0.80
2023-04-29T11:45:18.446Z,0.50
2023-04-29T11:47:48.575Z,0.43
2023-04-29T11:50:20.764Z,0.40
2023-04-29T11:52:50.401Z,0.53
2023-04-29T11:55:19.110Z,0.60
2023-04-29T11:57:52.696Z,0.37
2023-04-29T12:00:23.288Z,0.60
2023-04-29T12:02:52.145Z,0.57
2023-04-29T12:05:20.882Z,0.30
2023-04-29T12:07:51.519Z,0.40
2023-04-29T12:10:21.261Z,0.40
2023-04-29T12:12:50.750Z,0.27
2023-04-29T12:15:19.420Z,0.30
2023-04-29T12:17:49.186Z,0.40
2023-04-29T12:20:17.651Z,0.40
2023-04-29T12:22:47.340Z,0.40
2023-04-29T12:25:18.426Z,0.40
2023-04-29T12:27:47.033Z,0.50
2023-04-29T12:30:16.189Z,0.43
2023-04-29T12:32:45.002Z,0.60
2023-04-29T12:35:20.120Z,0.47
2023-04-29T12:37:52.919Z,0.43
2023-04-29T12:40:21.669Z,0.90
2023-04-29T12:42:50.167Z,0.70
2023-04-29T12:45:29.575Z,0.30
2023-04-29T12:47:59.411Z,0.53
2023-04-29T12:50:34.606Z,0.50
2023-04-29T12:53:05.034Z,0.73
2023-04-29T12:55:34.783Z,0.40
2023-04-29T12:58:03.665Z,0.70
2023-04-29T13:00:32.798Z,0.70
2023-04-29T13:03:01.807Z,0.43
2023-04-29T13:05:30.400Z,0.33
2023-04-29T13:08:00.303Z,1.10
2023-04-29T13:10:29.253Z,0.90
2023-04-29T13:12:57.441Z,0.47
2023-04-29T13:15:25.997Z,0.67
2023-04-29T13:17:55.888Z,0.50
2023-04-29T13:20:24.347Z,0.60
2023-04-29T13:22:53.039Z,0.60
2023-04-29T13:25:22.971Z,0.70
2023-04-29T13:27:51.529Z,0.70
2023-04-29T13:30:19.994Z,0.57
2023-04-29T13:32:55.143Z,0.70
2023-04-29T13:35:25.054Z,0.80
2023-04-29T13:37:53.304Z,1.43
2023-04-29T13:40:27.559Z,0.60
2023-04-29T13:43:04.967Z,0.70
2023-04-29T13:45:39.065Z,0.60
2023-04-29T13:48:21.036Z,0.60
2023-04-29T13:51:34.520Z,0.60
2023-04-29T13:54:37.495Z,0.70
2023-04-29T14:02:21.472Z,0.60
2023-04-29T14:04:28.135Z,0.80
2023-04-29T14:06:58.013Z,0.60
2023-04-29T14:09:26.903Z,0.50
2023-04-29T14:11:57.475Z,0.88
2023-04-29T14:14:26.108Z,0.68
2023-04-29T14:16:54.896Z,0.50
2023-04-29T14:19:23.798Z,0.40
2023-04-29T14:21:52.478Z,0.60
2023-04-29T14:24:21.138Z,0.63
2023-04-29T14:26:49.499Z,0.73
2023-04-29T14:29:19.503Z,1.10
2023-04-29T14:31:48.938Z,0.73
2023-04-29T14:34:19.697Z,0.70
2023-04-29T14:36:48.587Z,1.05
2023-04-29T14:39:17.221Z,0.70
2023-04-29T14:41:46.076Z,0.63
2023-04-29T14:44:14.490Z,0.60
2023-04-29T14:46:45.552Z,1.60
2023-04-29T14:49:14.316Z,0.60
2023-04-29T14:51:42.805Z,0.60
2023-04-29T14:54:11.752Z,1.43
2023-04-29T14:56:40.450Z,0.80
2023-04-29T14:59:09.571Z,2.80
2023-04-29T15:01:38.719Z,0.60
2023-04-29T15:04:10.245Z,1.00
2023-04-29T15:06:39.037Z,0.60
2023-04-29T15:09:08.406Z,0.70
2023-04-29T15:11:39.639Z,1.00
2023-04-29T15:14:09.516Z,1.07
2023-04-29T15:16:38.382Z,0.70
2023-04-29T15:19:09.066Z,0.70
2023-04-29T15:21:37.490Z,0.83
2023-04-29T15:24:07.579Z,1.17
2023-04-29T15:26:36.204Z,0.70
2023-04-29T15:29:04.595Z,0.70
2023-04-29T15:31:33.135Z,0.70
2023-04-29T15:34:02.588Z,0.40
2023-04-29T15:36:34.573Z,0.50
2023-04-29T15:39:02.940Z,0.60
2023-04-29T15:41:31.234Z,1.10
2023-04-29T15:43:59.609Z,1.53
2023-04-29T15:46:28.948Z,1.53
2023-04-29T15:48:58.007Z,1.10
2023-04-29T15:51:27.292Z,0.80
2023-04-29T15:53:56.981Z,0.50
2023-04-29T15:56:26.052Z,0.80
2023-04-29T15:58:54.675Z,0.80
2023-04-29T16:01:23.377Z,0.80
2023-04-29T16:03:51.692Z,0.63
2023-04-29T16:06:20.146Z,0.80
2023-04-29T16:08:50.493Z,0.70
2023-04-29T16:11:21.727Z,0.80
2023-04-29T16:13:50.588Z,0.70
2023-04-29T16:16:18.891Z,0.60
2023-04-29T16:18:47.567Z,0.77
2023-04-29T16:21:15.949Z,0.80
2023-04-29T16:23:44.619Z,0.60
2023-04-29T16:26:12.878Z,0.60
2023-04-29T16:28:42.965Z,0.90
2023-04-29T16:31:13.249Z,0.80
2023-04-29T16:33:42.240Z,0.77
2023-04-29T16:36:10.952Z,0.70
2023-04-29T16:38:39.344Z,1.00
2023-04-29T16:41:08.315Z,1.30
2023-04-29T16:43:36.870Z,75.57
2023-04-29T16:46:07.060Z,1.40
2023-04-29T16:48:35.659Z,1.03
2023-04-29T16:51:04.456Z,0.90
2023-04-29T16:53:32.834Z,0.90
2023-04-29T16:56:01.674Z,1.20
2023-04-29T16:58:30.373Z,0.97
2023-04-29T17:00:59.253Z,1.00
2023-04-29T17:03:29.170Z,1.20
2023-04-29T17:05:57.613Z,0.97
2023-04-29T17:08:26.070Z,0.87
2023-04-29T17:10:54.850Z,1.10
2023-04-29T17:13:23.632Z,1.17
2023-04-29T17:15:51.977Z,1.95
2023-04-29T17:18:20.910Z,1.40
2023-04-29T17:20:51.201Z,1.67
2023-04-29T17:23:19.986Z,2.10
2023-04-29T17:25:48.204Z,1.45
2023-04-29T17:28:16.692Z,4.15
2023-04-29T17:30:45.279Z,6.78
2023-04-29T17:33:14.546Z,7.93
2023-04-29T17:35:43.200Z,5.10
2023-04-29T17:38:13.538Z,4.43
2023-04-29T17:40:43.558Z,3.83
2023-04-29T17:43:11.954Z,3.25
2023-04-29T17:45:42.108Z,3.03
2023-04-29T17:48:10.444Z,2.15
2023-04-29T17:50:40.690Z,2.25
2023-04-29T17:53:09.154Z,1.70
2023-04-29T17:55:43.452Z,3.13
2023-04-29T17:58:12.690Z,2.95
2023-04-29T18:00:41.893Z,3.38
2023-04-29T18:03:10.169Z,3.80
2023-04-29T18:05:38.768Z,5.28
2023-04-29T18:08:08.331Z,8.88
2023-04-29T18:10:36.946Z,4.00
2023-04-29T18:13:07.655Z,3.50
2023-04-29T18:15:36.243Z,3.72
2023-04-29T18:18:04.666Z,3.35
2023-04-29T18:20:33.198Z,6.90
2023-04-29T18:23:01.916Z,12.73
2023-04-29T18:25:31.447Z,7.50
2023-04-29T18:28:18.806Z,4.80
2023-04-29T18:30:50.338Z,8.30
2023-04-29T18:33:23.453Z,4.07
2023-04-29T18:35:52.150Z,4.23
2023-04-29T18:38:20.571Z,2.73
2023-04-29T18:40:49.805Z,2.20
2023-04-29T18:43:24.714Z,2.53
2023-04-29T18:45:54.617Z,2.30
2023-04-29T18:48:23.080Z,1.80
2023-04-29T18:50:55.051Z,1.97
2023-04-29T18:53:23.265Z,2.87
2023-04-29T18:55:51.678Z,3.30
2023-04-29T18:58:20.164Z,5.23
2023-04-29T19:00:49.164Z,7.73
2023-04-29T19:03:19.700Z,5.93
2023-04-29T19:05:48.398Z,4.67
2023-04-29T19:08:17.481Z,3.50
2023-04-29T19:10:46.517Z,5.50
2023-04-29T19:13:16.627Z,6.03
2023-04-29T19:15:44.793Z,7.37
2023-04-29T19:18:13.496Z,8.70
2023-04-29T19:20:44.071Z,10.63
2023-04-29T19:23:12.449Z,10.77
2023-04-29T19:25:40.929Z,11.30
2023-04-29T19:28:11.034Z,12.90
2023-04-29T19:30:41.735Z,15.53
2023-04-29T19:33:10.133Z,17.23
2023-04-29T19:35:38.443Z,16.37
2023-04-29T19:38:08.050Z,16.77
2023-04-29T19:40:36.753Z,18.13
2023-04-29T19:43:06.109Z,16.07
2023-04-29T19:45:35.475Z,15.87
2023-04-29T19:48:04.289Z,15.73
2023-04-29T19:50:33.253Z,15.97
2023-04-29T19:53:01.536Z,20.33
2023-04-29T19:55:31.659Z,18.40
2023-04-29T19:57:59.980Z,17.90
2023-04-29T20:00:28.338Z,18.70
2023-04-29T20:02:57.038Z,18.30
2023-04-29T20:05:25.675Z,21.90
2023-04-29T20:07:54.027Z,19.90
2023-04-29T20:10:22.557Z,21.57
2023-04-29T20:12:52.279Z,19.60
2023-04-29T20:15:21.136Z,20.60
2023-04-29T20:17:51.374Z,21.00
2023-04-29T20:20:21.122Z,20.70
2023-04-29T20:22:50.229Z,20.70
2023-04-29T20:25:23.520Z,22.77
2023-04-29T20:27:55.793Z,22.00
2023-04-29T20:30:24.208Z,23.67
2023-04-29T20:32:54.081Z,23.47
2023-04-29T20:35:25.921Z,24.50
2023-04-29T20:37:55.661Z,25.23
2023-04-29T20:40:26.015Z,24.93
2023-04-29T20:43:12.469Z,34.77
2023-04-29T20:45:46.342Z,29.87
2023-04-29T20:48:15.944Z,25.80
2023-04-29T20:50:44.608Z,26.33
2023-04-29T20:53:14.289Z,27.30
2023-04-29T20:55:43.383Z,25.50
2023-04-29T20:58:16.927Z,25.17
2023-04-29T21:00:48.663Z,26.70
2023-04-29T21:03:17.415Z,27.10
2023-04-29T21:05:48.686Z,27.27
2023-04-29T21:08:17.362Z,26.23
2023-04-29T21:10:46.152Z,27.10
2023-04-29T21:13:19.172Z,28.27
2023-04-29T21:15:47.933Z,27.37
2023-04-29T21:18:17.303Z,27.47
2023-04-29T21:20:46.450Z,27.00
2023-04-29T21:23:14.788Z,26.73
2023-04-29T21:25:44.093Z,25.33
2023-04-29T21:28:13.863Z,27.63
2023-04-29T21:30:45.052Z,27.23
2023-04-29T21:33:14.810Z,26.33
2023-04-29T21:35:43.862Z,26.80
2023-04-29T21:38:11.871Z,26.77
2023-04-29T21:40:42.858Z,29.40
2023-04-29T21:43:11.840Z,27.37
2023-04-29T21:45:41.781Z,27.70
2023-04-29T21:48:15.775Z,26.40
2023-04-29T21:50:44.665Z,27.93
2023-04-29T21:53:15.908Z,27.23
2023-04-29T21:55:44.783Z,27.80
2023-04-29T21:58:13.002Z,29.10
2023-04-29T22:00:48.014Z,30.20
2023-04-29T22:03:18.161Z,29.07
2023-04-29T22:05:47.431Z,27.50
2023-04-29T22:08:15.719Z,27.57
2023-04-29T22:10:44.044Z,29.77
2023-04-29T22:13:12.370Z,30.20
2023-04-29T22:15:41.693Z,29.03
2023-04-29T22:18:09.865Z,30.17
2023-04-29T22:20:40.401Z,30.10
2023-04-29T22:23:08.757Z,29.53
2023-04-29T22:25:36.972Z,29.77
2023-04-29T22:28:05.746Z,29.70
2023-04-29T22:30:34.168Z,31.17
2023-04-29T22:33:04.358Z,29.63
2023-04-29T22:35:32.717Z,30.97
2023-04-29T22:38:02.499Z,30.10
2023-04-29T22:40:31.604Z,31.10
2023-04-29T22:42:59.994Z,31.03
2023-04-29T22:45:28.889Z,31.07
2023-04-29T22:47:57.792Z,30.67
2023-04-29T22:50:26.224Z,29.67
2023-04-29T22:52:54.469Z,30.47
2023-04-29T22:55:24.835Z,29.03
2023-04-29T22:57:53.359Z,30.53
2023-04-29T23:00:22.967Z,30.80
2023-04-29T23:02:51.294Z,29.67
2023-04-29T23:05:19.703Z,29.97
2023-04-29T23:07:47.800Z,28.43
2023-04-29T23:10:16.517Z,28.40
2023-04-29T23:12:46.139Z,27.80
2023-04-29T23:15:14.364Z,27.07
2023-04-29T23:17:42.992Z,28.97
2023-04-29T23:20:12.821Z,28.77
2023-04-29T23:22:41.578Z,28.43
2023-04-29T23:25:10.122Z,28.63
2023-04-29T23:27:38.740Z,26.70
2023-04-29T23:30:10.209Z,27.13
2023-04-29T23:32:38.605Z,27.57
2023-04-29T23:35:07.667Z,29.33
2023-04-29T23:37:36.094Z,29.30
2023-04-29T23:40:06.097Z,27.53
2023-04-29T23:42:34.558Z,27.40
2023-04-29T23:45:02.764Z,28.00
2023-04-29T23:47:32.859Z,27.20
2023-04-29T23:50:01.755Z,25.43
2023-04-29T23:52:30.486Z,26.80
2023-04-29T23:54:58.736Z,25.67
2023-04-29T23:57:27.349Z,26.77
2023-04-29T23:59:55.855Z,25.60
